createdAt,value
2022-07-29T05:16:21.198Z,7.20
2022-07-29T05:21:15.007Z,7.75
2022-07-29T05:26:08.660Z,10.63
2022-07-29T05:31:02.429Z,8.13
2022-07-29T05:36:00.517Z,9.65
2022-07-29T05:40:54.981Z,6.70
2022-07-29T05:45:49.813Z,7.60
2022-07-29T06:06:25.057Z,6.30
2022-07-29T06:11:18.646Z,5.78
2022-07-29T06:16:15.807Z,5.95
2022-07-29T06:21:24.716Z,6.50
2022-07-29T06:26:18.297Z,5.93
2022-07-29T06:31:12.130Z,5.57
2022-07-29T06:36:07.108Z,5.97
2022-07-29T06:41:03.631Z,6.35
2022-07-29T06:46:02.526Z,6.43
2022-07-29T06:50:56.193Z,6.90
2022-07-29T06:55:50.113Z,6.28
2022-07-29T07:00:45.390Z,6.13
2022-07-29T07:05:39.181Z,5.53
2022-07-29T07:10:33.503Z,5.90
2022-07-29T07:15:39.841Z,5.95
2022-07-29T07:20:36.804Z,6.18
2022-07-29T07:25:30.956Z,6.32
2022-07-29T07:30:25.189Z,5.93
2022-07-29T07:35:19.049Z,5.88
2022-07-29T07:40:18.563Z,6.20
2022-07-29T07:45:16.513Z,5.90
2022-07-29T07:50:16.567Z,6.15
2022-07-29T07:55:17.463Z,5.65
2022-07-29T08:00:13.108Z,6.00
2022-07-29T08:05:07.578Z,5.50
2022-07-29T08:10:07.383Z,5.68
2022-07-29T08:15:02.456Z,5.43
2022-07-29T08:19:56.128Z,5.32
2022-07-29T08:24:55.700Z,5.30
2022-07-29T08:29:50.008Z,5.75
2022-07-29T08:34:47.490Z,4.85
2022-07-29T08:39:42.357Z,4.97
2022-07-29T08:44:36.907Z,4.63
2022-07-29T08:49:30.837Z,4.32
2022-07-29T08:54:26.459Z,4.40
2022-07-29T08:59:22.759Z,5.05
2022-07-29T09:04:16.936Z,4.97
2022-07-29T09:09:11.470Z,5.00
2022-07-29T09:14:06.863Z,4.65
2022-07-29T09:19:00.773Z,5.25
2022-07-29T09:24:05.744Z,5.47
2022-07-29T09:29:00.251Z,5.00
2022-07-29T09:34:00.416Z,5.38
2022-07-29T09:39:00.730Z,5.50
2022-07-29T09:43:58.886Z,5.57
2022-07-29T09:49:13.751Z,5.40
2022-07-29T09:54:28.829Z,5.40
2022-07-29T09:59:25.750Z,5.55
2022-07-29T10:04:21.881Z,5.30
2022-07-29T10:09:16.797Z,5.30
2022-07-29T10:14:17.348Z,5.03
2022-07-29T10:19:11.680Z,5.30
2022-07-29T10:24:14.985Z,4.95
2022-07-29T10:29:10.576Z,5.03
2022-07-29T10:34:15.888Z,5.03
2022-07-29T10:39:23.242Z,4.68
2022-07-29T10:44:22.866Z,4.57
2022-07-29T10:49:18.919Z,6.07
2022-07-29T10:54:18.034Z,5.20
2022-07-29T10:59:36.134Z,5.13
2022-07-29T11:05:02.588Z,4.85
2022-07-29T11:10:31.429Z,4.93
2022-07-29T11:15:28.678Z,5.13
2022-07-29T11:20:37.941Z,4.93
2022-07-29T11:25:43.072Z,4.53
2022-07-29T11:30:53.665Z,5.30
2022-07-29T11:36:11.479Z,4.82
2022-07-29T11:41:27.526Z,4.78
2022-07-29T11:47:00.401Z,4.88
2022-07-29T11:52:05.575Z,4.68
2022-07-29T11:57:00.981Z,5.15
2022-07-29T12:02:33.342Z,4.63
2022-07-29T12:07:32.646Z,4.90
2022-07-29T12:12:29.316Z,5.40
2022-07-29T12:17:32.092Z,5.03
2022-07-29T12:22:45.384Z,4.95
2022-07-29T12:27:42.822Z,4.45
2022-07-29T12:32:38.949Z,4.72
2022-07-29T12:37:41.030Z,5.10
2022-07-29T12:42:38.578Z,4.65
2022-07-29T12:47:32.986Z,4.65
2022-07-29T12:52:31.083Z,4.82
2022-07-29T12:57:25.113Z,3.90
2022-07-29T13:02:25.797Z,4.30
2022-07-29T13:07:57.076Z,4.30
2022-07-29T13:13:02.374Z,4.18
2022-07-29T13:17:59.808Z,4.60
2022-07-29T13:22:54.399Z,4.18
2022-07-29T13:27:47.916Z,4.28
2022-07-29T13:32:41.795Z,4.40
2022-07-29T13:37:39.721Z,4.43
2022-07-29T13:42:33.927Z,4.30
2022-07-29T13:47:32.680Z,4.18
2022-07-29T13:52:26.837Z,4.57
2022-07-29T13:57:21.861Z,4.28
2022-07-29T14:02:16.025Z,3.85
2022-07-29T14:07:16.413Z,4.32
2022-07-29T14:12:13.505Z,3.40
2022-07-29T14:17:09.799Z,4.05
2022-07-29T14:22:07.312Z,5.18
2022-07-29T14:27:04.403Z,3.17
2022-07-29T14:31:58.393Z,4.82
2022-07-29T14:36:56.492Z,4.57
2022-07-29T14:41:51.120Z,4.85
2022-07-29T14:46:45.060Z,4.55
2022-07-29T14:51:44.056Z,4.45
2022-07-29T14:56:46.738Z,3.90
2022-07-29T15:01:40.804Z,4.20
2022-07-29T15:06:35.277Z,4.20
2022-07-29T15:11:28.819Z,4.15
2022-07-29T15:16:24.285Z,4.10
2022-07-29T15:21:17.941Z,4.10
2022-07-29T15:26:11.653Z,3.90
2022-07-29T15:31:06.026Z,4.10
2022-07-29T15:36:01.154Z,4.00
2022-07-29T15:40:54.775Z,4.00
2022-07-29T15:46:02.266Z,3.88
2022-07-29T15:50:56.729Z,4.15
2022-07-29T15:55:51.819Z,4.28
2022-07-29T16:00:45.584Z,4.30
2022-07-29T16:05:39.350Z,3.92
2022-07-29T16:10:33.065Z,4.00
2022-07-29T16:15:28.670Z,3.63
2022-07-29T16:20:22.879Z,4.30
2022-07-29T16:25:17.108Z,3.90
2022-07-29T16:30:11.537Z,4.20
2022-07-29T16:35:07.590Z,4.30
2022-07-29T16:40:01.170Z,3.80
2022-07-29T16:44:55.587Z,4.20
2022-07-29T16:49:49.324Z,3.90
2022-07-29T16:54:44.398Z,4.07
2022-07-29T16:59:43.524Z,4.13
2022-07-29T17:04:37.644Z,4.30
2022-07-29T17:09:31.317Z,4.47
2022-07-29T17:14:31.095Z,4.30
2022-07-29T17:19:24.747Z,4.70
2022-07-29T17:24:18.314Z,4.80
2022-07-29T17:29:12.603Z,4.63
2022-07-29T17:34:08.847Z,4.28
2022-07-29T17:39:06.082Z,4.40
2022-07-29T17:43:59.680Z,4.68
2022-07-29T17:48:53.384Z,5.28
2022-07-29T17:53:48.506Z,4.95
2022-07-29T17:58:42.404Z,5.10
2022-07-29T18:03:36.013Z,5.18
2022-07-29T18:08:31.300Z,5.43
2022-07-29T18:13:27.056Z,5.15
2022-07-29T18:18:20.762Z,6.70
2022-07-29T18:23:15.106Z,5.82
2022-07-29T18:28:09.449Z,6.05
2022-07-29T18:33:20.858Z,5.97
2022-07-29T18:38:15.338Z,5.65
2022-07-29T18:43:09.307Z,6.40
2022-07-29T18:48:04.510Z,6.25
2022-07-29T18:52:58.990Z,6.72
2022-07-29T18:57:55.524Z,6.55
2022-07-29T19:02:51.113Z,6.57
2022-07-29T19:07:46.695Z,6.10
2022-07-29T19:12:40.383Z,6.85
2022-07-29T19:17:34.092Z,8.20
2022-07-29T19:22:27.988Z,7.63
2022-07-29T19:27:23.379Z,6.95
2022-07-29T19:32:25.042Z,6.75
2022-07-29T19:37:19.042Z,6.40
2022-07-29T19:42:12.976Z,6.82
2022-07-29T19:47:08.262Z,5.38
2022-07-29T19:52:01.833Z,5.10
2022-07-29T19:56:55.902Z,4.90
2022-07-29T20:01:49.644Z,4.47
2022-07-29T20:06:44.974Z,4.97
2022-07-29T20:11:39.810Z,5.20
2022-07-29T20:16:33.543Z,4.90
2022-07-29T20:21:28.137Z,3.20
2022-07-29T20:26:23.258Z,3.90
2022-07-29T20:31:20.040Z,3.85
2022-07-29T20:36:13.939Z,5.80
